Radar

TAFs

KJXN 251733Z 2518/2618 11010KT 4SM -SHRA BR BKN008 OVC025
   FM252300 12012G23KT P6SM VCTS OVC015CB
   FM260300 16011G21KT 5SM -SHRA BR OVC028 WS020/17040KT
   FM261000 19010KT 5SM BR VCSH OVC015
   FM261700 20012G20KT P6SM -SHRA BKN012
KDTW 251726Z 2518/2624 11012KT P6SM -SHRA SCT025 OVC040
     TEMPO 2518/2522 5SM -SHRA OVC025
   FM252200 12008KT P6SM BKN030 OVC060
     TEMPO 2601/2605 3SM SHRA BKN020 OVC040
   FM260500 17009KT 6SM BR OVC012
     PROB30 2608/2614 4SM -DZ OVC007
   FM261400 21013KT 6SM -SHRA BKN022 BKN045
KTOL 251720Z 2518/2618 12010KT P6SM BKN035
   FM252000 13010KT P6SM SCT050
   FM260100 15009KT P6SM VCTS BKN035CB
     PROB30 2603/2605 2SM -TSRA BKN015CB
   FM260500 18011KT P6SM BKN035
   FM261700 19012G22KT P6SM BKN035
KFWA 251720Z 2518/2618 14015KT P6SM SCT012 BKN020
   FM252200 15012G22KT 6SM -SHRA BR BKN025
     TEMPO 2522/2524 3SM TSRA BR BKN008CB
   FM260700 18012KT P6SM VCSH BKN020
   FM261200 18010G20KT 6SM -SHRA BR BKN015
KCLE 251720Z 2518/2624 13012KT P6SM BKN060
   FM260300 16012G20KT P6SM VCSH BKN080
   FM260800 17013G21KT P6SM BKN080
   FM261400 19012G22KT P6SM BKN035
   FM262100 19012G22KT P6SM VCTS BKN035CB
KFDY 251720Z 2518/2618 13010KT P6SM SCT035
   FM260000 15012KT P6SM VCTS BKN035CB
   FM260500 18012KT P6SM BKN035
   FM261700 19012G22KT P6SM BKN035

METARs

KFWA 251728Z 13010G15KT 10SM FEW016 SCT022 BKN110 BKN190 23/20 A3002 RMK AO2 T02330200
KDUH 251715Z AUTO 09008KT 060V120 10SM -DZ BKN035 BKN043 OVC065 18/17 A3010 RMK AO2 T01750165
KJXN 251711Z 09007KT 4SM -RA BR BKN009 OVC029 17/17 A3008 RMK AO2 CIG 007V013 P0002 T01720167
KDTW 251653Z 11010G19KT 10SM SCT030 OVC090 19/14 A3012 RMK AO2 SLP200 T01940144
KFDY 251653Z AUTO 14011KT 10SM SCT085 23/17 A3007 RMK AO2 RAB11E37 SLP177 P0000 T02280167
KTDZ 251653Z AUTO 12014KT 10SM -RA BKN036 BKN060 OVC080 21/16 A3010 RMK AO2 RAB01 SLP192 P0001 T02110156
KTOL 251652Z 12007KT 090V150 10SM -RA SCT027 BKN033 OVC090 21/16 A3009 RMK AO2 RAB03 SLP187 P0000 T02110156
KCLE 251651Z 14013G19KT 10SM FEW033 BKN140 OVC200 23/14 A3013 RMK AO2 SLP216 T02330144

Satellite

TFRs